createdAt,value
2022-07-29T00:02:47.606Z,25.11
2022-07-29T00:05:50.244Z,25.03
2022-07-29T00:08:52.452Z,24.95
2022-07-29T00:11:55.999Z,25.01
2022-07-29T00:14:58.456Z,25.01
2022-07-29T00:18:00.901Z,25.00
2022-07-29T00:21:03.287Z,24.92
2022-07-29T00:24:05.837Z,24.95
2022-07-29T00:27:07.968Z,24.90
2022-07-29T00:30:10.677Z,24.83
2022-07-29T00:33:12.892Z,24.82
2022-07-29T00:36:15.259Z,24.74
2022-07-29T00:39:17.387Z,24.81
2022-07-29T00:42:19.927Z,24.73
2022-07-29T00:45:23.129Z,24.77
2022-07-29T00:48:25.623Z,24.75
2022-07-29T00:51:28.381Z,24.77
2022-07-29T00:54:31.244Z,24.72
2022-07-29T00:57:34.259Z,24.74
2022-07-29T01:00:37.806Z,24.68
2022-07-29T01:03:40.075Z,24.78
2022-07-29T01:06:43.605Z,24.69
2022-07-29T01:09:47.665Z,24.61
2022-07-29T01:12:52.258Z,24.52
2022-07-29T01:16:04.336Z,24.51
2022-07-29T01:19:28.686Z,24.56
2022-07-29T01:22:53.996Z,24.50
2022-07-29T01:26:05.332Z,24.52
2022-07-29T01:29:11.224Z,24.49
2022-07-29T01:32:28.129Z,24.46
2022-07-29T01:35:42.834Z,24.47
2022-07-29T01:38:51.840Z,24.38
2022-07-29T01:42:23.625Z,24.40
2022-07-29T01:45:35.116Z,24.34
2022-07-29T01:48:46.729Z,24.31
2022-07-29T01:52:12.344Z,24.37
2022-07-29T01:55:17.385Z,24.37
2022-07-29T01:58:21.659Z,24.36
2022-07-29T02:01:26.036Z,24.40
2022-07-29T02:04:31.122Z,24.31
2022-07-29T02:07:34.714Z,24.22
2022-07-29T02:10:41.018Z,24.14
2022-07-29T02:13:45.214Z,24.07
2022-07-29T02:16:50.957Z,24.06
2022-07-29T02:19:57.213Z,23.91
2022-07-29T02:23:01.546Z,23.92
2022-07-29T02:26:03.926Z,23.89
2022-07-29T02:29:07.849Z,23.88
2022-07-29T02:32:13.468Z,23.86
2022-07-29T02:35:17.382Z,23.80
2022-07-29T02:38:41.987Z,23.82
2022-07-29T02:41:52.547Z,23.83
2022-07-29T02:44:55.097Z,23.78
2022-07-29T02:48:00.671Z,23.75
2022-07-29T02:51:09.345Z,23.71
2022-07-29T02:54:27.104Z,23.72
2022-07-29T02:57:54.970Z,23.65
2022-07-29T03:01:02.256Z,23.64
2022-07-29T03:04:06.039Z,23.73
2022-07-29T03:07:11.275Z,23.63
2022-07-29T03:10:14.067Z,23.55
2022-07-29T03:13:17.402Z,23.47
2022-07-29T03:16:21.043Z,23.46
2022-07-29T03:19:23.776Z,23.48
2022-07-29T03:22:27.072Z,23.41
2022-07-29T03:25:29.614Z,23.49
2022-07-29T03:28:31.837Z,23.51
2022-07-29T03:31:34.249Z,23.50
2022-07-29T03:34:38.400Z,23.42
2022-07-29T03:37:40.791Z,23.50
2022-07-29T03:41:06.124Z,23.45
2022-07-29T03:44:09.434Z,23.39
2022-07-29T03:47:14.298Z,23.39
2022-07-29T03:50:17.772Z,23.36
2022-07-29T03:53:19.999Z,23.37
2022-07-29T03:56:24.323Z,23.40
2022-07-29T03:59:27.952Z,23.37
2022-07-29T04:02:31.397Z,23.42
2022-07-29T04:05:33.994Z,23.40
2022-07-29T04:08:36.182Z,23.38
2022-07-29T04:12:01.617Z,23.34
2022-07-29T04:15:05.735Z,23.40
2022-07-29T04:18:08.135Z,23.34
2022-07-29T04:21:10.258Z,23.36
2022-07-29T04:24:13.125Z,23.35
2022-07-29T04:27:15.439Z,23.36
2022-07-29T04:30:19.887Z,23.36
2022-07-29T04:33:22.025Z,23.36
2022-07-29T04:36:29.463Z,23.34
2022-07-29T04:39:32.030Z,23.34
2022-07-29T04:42:34.447Z,23.34
2022-07-29T04:45:47.214Z,23.36
2022-07-29T04:48:49.840Z,23.32
2022-07-29T04:51:52.046Z,23.33
2022-07-29T04:54:54.443Z,23.29
2022-07-29T04:57:56.547Z,23.34
2022-07-29T05:00:59.314Z,23.47
2022-07-29T05:04:01.438Z,23.51
2022-07-29T05:07:03.945Z,23.49
2022-07-29T05:10:06.430Z,23.48
2022-07-29T05:13:09.145Z,23.57
2022-07-29T05:16:11.371Z,23.58
2022-07-29T05:19:14.699Z,23.66
2022-07-29T05:22:17.061Z,23.69
2022-07-29T05:25:19.437Z,23.75
2022-07-29T05:28:21.572Z,23.80
2022-07-29T05:31:24.013Z,23.90
2022-07-29T05:34:26.246Z,23.99
2022-07-29T05:37:28.658Z,24.11
2022-07-29T05:40:31.127Z,24.05
2022-07-29T05:43:33.866Z,24.11
2022-07-29T05:46:35.987Z,24.11
2022-07-29T05:49:38.767Z,24.15
2022-07-29T05:52:40.885Z,24.26
2022-07-29T05:55:43.610Z,24.40
2022-07-29T05:58:45.777Z,24.55
2022-07-29T06:01:48.429Z,24.67
2022-07-29T06:04:50.884Z,24.58
2022-07-29T06:07:53.085Z,24.62
2022-07-29T06:10:55.461Z,24.59
2022-07-29T06:13:57.624Z,24.63
2022-07-29T06:17:00.034Z,24.68
2022-07-29T06:20:03.664Z,24.68
2022-07-29T06:23:06.090Z,24.74
2022-07-29T06:26:08.267Z,24.71
2022-07-29T06:29:11.672Z,24.74
2022-07-29T06:32:16.100Z,24.67
2022-07-29T06:35:38.424Z,24.64
2022-07-29T06:38:42.891Z,24.66
2022-07-29T06:41:51.562Z,24.67
2022-07-29T06:44:53.785Z,24.69
2022-07-29T06:47:56.242Z,24.79
2022-07-29T06:50:58.652Z,24.83
2022-07-29T06:54:13.554Z,24.92
2022-07-29T06:57:15.736Z,24.97
2022-07-29T07:00:18.371Z,25.08
2022-07-29T07:03:20.711Z,25.25
2022-07-29T07:06:23.172Z,25.35
2022-07-29T07:09:25.476Z,25.41
2022-07-29T07:12:42.714Z,25.58
2022-07-29T07:15:46.470Z,25.76
2022-07-29T07:18:48.862Z,25.90
2022-07-29T07:21:51.023Z,26.08
2022-07-29T07:24:53.422Z,26.19
2022-07-29T07:27:55.590Z,26.38
2022-07-29T07:30:58.310Z,26.53
2022-07-29T07:34:00.458Z,26.77
2022-07-29T07:37:03.016Z,27.04
2022-07-29T07:40:06.013Z,27.37
2022-07-29T07:43:08.395Z,27.56
2022-07-29T07:46:10.567Z,27.82
2022-07-29T07:49:13.175Z,28.05
2022-07-29T07:52:16.997Z,28.39
2022-07-29T07:55:19.864Z,28.61
2022-07-29T07:58:22.244Z,28.98
2022-07-29T08:01:24.788Z,29.28
2022-07-29T08:04:29.059Z,29.42
2022-07-29T08:07:31.619Z,29.44
2022-07-29T08:10:52.957Z,29.57
2022-07-29T08:13:55.495Z,29.82
2022-07-29T08:16:58.223Z,30.05
2022-07-29T08:20:00.345Z,30.22
2022-07-29T08:23:07.476Z,30.35
2022-07-29T08:26:13.118Z,30.57
2022-07-29T08:29:19.748Z,30.52
2022-07-29T08:32:43.468Z,30.63
2022-07-29T08:35:44.795Z,30.73
2022-07-29T08:38:47.238Z,30.93
2022-07-29T08:41:57.314Z,31.15
2022-07-29T08:44:59.906Z,31.50
2022-07-29T08:48:02.430Z,31.63
2022-07-29T08:51:06.112Z,31.89
2022-07-29T08:54:10.362Z,32.10
2022-07-29T08:57:16.780Z,32.52
2022-07-29T09:00:20.325Z,32.90
2022-07-29T09:03:26.478Z,33.20
2022-07-29T09:06:34.166Z,33.41
2022-07-29T09:09:36.378Z,33.63
2022-07-29T09:12:39.131Z,34.08
2022-07-29T09:15:41.259Z,34.28
2022-07-29T09:18:45.603Z,34.46
2022-07-29T09:22:00.112Z,34.58
2022-07-29T09:25:02.802Z,34.77
2022-07-29T09:28:15.753Z,35.03
2022-07-29T09:31:18.184Z,34.61
2022-07-29T09:34:26.144Z,35.12
2022-07-29T09:37:29.492Z,35.44
2022-07-29T09:40:32.945Z,35.57
2022-07-29T09:43:35.385Z,35.52
2022-07-29T09:46:37.608Z,35.53
2022-07-29T09:49:59.111Z,35.74
2022-07-29T09:53:01.380Z,35.70
2022-07-29T09:56:05.319Z,35.73
2022-07-29T09:59:09.049Z,35.71
2022-07-29T10:02:20.323Z,35.65
2022-07-29T10:05:36.315Z,35.64
2022-07-29T10:08:39.115Z,35.60
2022-07-29T10:11:49.496Z,35.48
2022-07-29T10:14:52.172Z,35.45
2022-07-29T10:17:56.147Z,35.61
2022-07-29T10:20:59.023Z,35.65
2022-07-29T10:24:02.066Z,35.70
2022-07-29T10:27:06.184Z,35.73
2022-07-29T10:30:09.451Z,35.71
2022-07-29T10:33:15.667Z,35.63
2022-07-29T10:36:27.364Z,35.70
2022-07-29T10:39:49.555Z,35.68
2022-07-29T10:42:54.171Z,35.38
2022-07-29T10:45:58.625Z,35.21
2022-07-29T10:49:16.595Z,35.18
2022-07-29T10:52:20.745Z,35.52
2022-07-29T10:55:37.673Z,35.28
2022-07-29T10:58:39.889Z,34.55
2022-07-29T11:01:46.431Z,33.95
2022-07-29T11:04:52.725Z,33.48
2022-07-29T11:08:20.512Z,33.42
2022-07-29T11:11:29.784Z,33.73
2022-07-29T11:14:59.932Z,34.11
2022-07-29T11:18:02.183Z,34.28
2022-07-29T11:21:04.577Z,34.24
2022-07-29T11:24:28.563Z,34.51
2022-07-29T11:27:40.449Z,34.81
2022-07-29T11:30:51.448Z,34.70
2022-07-29T11:37:18.025Z,34.61
2022-07-29T11:40:22.958Z,34.79
2022-07-29T11:43:47.628Z,34.85
2022-07-29T11:46:54.278Z,34.89
2022-07-29T11:49:59.872Z,34.88
2022-07-29T11:53:13.027Z,34.89
2022-07-29T11:56:22.302Z,34.78
2022-07-29T11:59:33.472Z,34.59
2022-07-29T12:02:43.112Z,34.69
2022-07-29T12:05:48.217Z,34.58
2022-07-29T12:08:53.955Z,34.18
2022-07-29T12:12:05.107Z,34.08
2022-07-29T12:15:21.428Z,33.95
2022-07-29T12:18:25.909Z,34.10
2022-07-29T12:21:29.316Z,34.17
2022-07-29T12:24:45.212Z,34.16
2022-07-29T12:27:48.369Z,34.28
2022-07-29T12:30:51.823Z,34.42
2022-07-29T12:33:54.838Z,34.50
2022-07-29T12:36:58.054Z,34.35
2022-07-29T12:40:00.373Z,34.39
2022-07-29T12:43:10.145Z,34.20
2022-07-29T12:46:15.593Z,34.35
2022-07-29T12:49:24.110Z,34.53
2022-07-29T12:52:31.573Z,34.35
2022-07-29T12:55:44.395Z,34.17
2022-07-29T12:58:50.841Z,34.01
2022-07-29T13:01:53.951Z,34.22
2022-07-29T13:04:58.766Z,34.20
2022-07-29T13:08:22.034Z,34.11
2022-07-29T13:11:35.102Z,34.15
2022-07-29T13:14:48.431Z,34.21
2022-07-29T13:17:50.590Z,34.18
2022-07-29T13:20:53.182Z,33.91
2022-07-29T13:23:55.299Z,33.57
2022-07-29T13:26:57.651Z,33.70
2022-07-29T13:30:01.714Z,33.76
2022-07-29T13:33:04.347Z,33.86
2022-07-29T13:36:06.763Z,33.81
2022-07-29T13:39:09.145Z,33.53
2022-07-29T13:42:14.061Z,33.40
2022-07-29T13:45:16.878Z,33.24
2022-07-29T13:48:18.992Z,33.21
2022-07-29T13:51:21.386Z,33.12
2022-07-29T13:54:23.559Z,33.07
2022-07-29T13:57:25.943Z,33.31
2022-07-29T14:00:28.305Z,33.53
2022-07-29T14:03:30.728Z,33.50
2022-07-29T14:06:32.836Z,33.56
2022-07-29T14:09:40.922Z,33.70
2022-07-29T14:12:43.909Z,33.79
2022-07-29T14:15:46.314Z,33.82
2022-07-29T14:18:48.419Z,33.88
2022-07-29T14:21:51.049Z,33.74
2022-07-29T14:24:53.548Z,33.52
2022-07-29T14:27:56.125Z,33.22
2022-07-29T14:31:00.747Z,33.02
2022-07-29T14:34:03.572Z,32.86
2022-07-29T14:37:07.355Z,32.71
2022-07-29T14:40:11.292Z,32.69
2022-07-29T14:43:14.697Z,32.84
2022-07-29T14:46:17.100Z,32.97
2022-07-29T14:49:19.299Z,33.11
2022-07-29T14:52:21.770Z,33.20
2022-07-29T14:55:24.083Z,33.23
2022-07-29T14:58:26.479Z,33.20
2022-07-29T15:01:28.761Z,33.26
2022-07-29T15:04:31.492Z,33.30
2022-07-29T15:07:33.646Z,33.34
2022-07-29T15:10:36.299Z,33.34
2022-07-29T15:13:38.567Z,33.12
2022-07-29T15:16:44.047Z,32.96
2022-07-29T15:19:49.151Z,33.03
2022-07-29T15:22:51.658Z,33.04
2022-07-29T15:25:53.924Z,33.11
2022-07-29T15:28:59.095Z,33.18
2022-07-29T15:32:06.019Z,33.22
2022-07-29T15:35:08.496Z,33.28
2022-07-29T15:38:10.639Z,33.12
2022-07-29T15:41:15.979Z,33.13
2022-07-29T15:44:18.554Z,33.16
2022-07-29T15:47:20.915Z,33.18
2022-07-29T15:50:23.073Z,33.29
2022-07-29T15:53:25.870Z,33.32
2022-07-29T15:56:28.035Z,33.31
2022-07-29T15:59:30.614Z,33.37
2022-07-29T16:02:32.842Z,33.42
2022-07-29T16:05:35.232Z,33.44
2022-07-29T16:08:39.790Z,33.39
2022-07-29T16:11:42.984Z,33.27
2022-07-29T16:14:45.296Z,33.15
2022-07-29T16:17:47.738Z,33.14
2022-07-29T16:20:49.834Z,33.12
2022-07-29T16:23:52.866Z,33.00
2022-07-29T16:26:56.122Z,32.95
2022-07-29T16:29:58.808Z,32.95
2022-07-29T16:33:08.116Z,32.95
2022-07-29T16:36:10.811Z,32.90
2022-07-29T16:39:15.501Z,32.87
2022-07-29T16:42:36.953Z,32.85
2022-07-29T16:45:46.009Z,32.82
2022-07-29T16:48:49.226Z,32.77
2022-07-29T16:51:51.386Z,32.64
2022-07-29T16:54:53.802Z,32.51
2022-07-29T16:57:55.994Z,32.38
2022-07-29T17:00:58.788Z,32.24
2022-07-29T17:04:07.078Z,32.10
2022-07-29T17:07:09.633Z,32.06
2022-07-29T17:10:11.776Z,31.94
2022-07-29T17:13:14.488Z,31.84
2022-07-29T17:16:16.790Z,31.76
2022-07-29T17:19:19.228Z,31.66
2022-07-29T17:22:23.881Z,31.54
2022-07-29T17:25:26.263Z,31.42
2022-07-29T17:28:28.403Z,31.33
2022-07-29T17:31:30.931Z,31.21
2022-07-29T17:34:33.104Z,31.13
2022-07-29T17:37:36.431Z,31.07
2022-07-29T17:40:38.578Z,30.98
2022-07-29T17:43:41.852Z,30.91
2022-07-29T17:46:43.954Z,30.83
2022-07-29T17:49:47.217Z,30.74
2022-07-29T17:52:49.417Z,30.60
2022-07-29T17:55:51.881Z,30.48
2022-07-29T17:58:54.445Z,30.39
2022-07-29T18:01:56.921Z,30.28
2022-07-29T18:04:59.360Z,30.16
2022-07-29T18:08:01.659Z,30.06
2022-07-29T18:11:04.011Z,30.01
2022-07-29T18:14:06.168Z,29.93
2022-07-29T18:17:08.657Z,29.82
2022-07-29T18:20:11.233Z,29.72
2022-07-29T18:23:13.762Z,29.62
2022-07-29T18:26:16.190Z,29.52
2022-07-29T18:29:18.947Z,29.33
2022-07-29T18:32:29.035Z,29.29
2022-07-29T18:35:32.577Z,29.25
2022-07-29T18:38:35.044Z,29.13
2022-07-29T18:41:50.311Z,29.08
2022-07-29T18:44:53.181Z,29.01
2022-07-29T18:47:57.011Z,28.92
2022-07-29T18:50:59.133Z,28.82
2022-07-29T18:54:01.565Z,28.72
2022-07-29T18:57:55.911Z,28.69
2022-07-29T19:00:27.119Z,28.65
2022-07-29T19:03:29.243Z,28.57
2022-07-29T19:06:31.662Z,28.51
2022-07-29T19:09:34.416Z,28.44
2022-07-29T19:12:36.917Z,28.44
2022-07-29T19:15:39.049Z,28.49
2022-07-29T19:18:43.085Z,28.59
2022-07-29T19:21:46.976Z,28.66
2022-07-29T19:24:50.276Z,28.64
2022-07-29T19:27:52.414Z,28.70
2022-07-29T19:30:54.937Z,28.66
2022-07-29T19:33:57.070Z,28.66
2022-07-29T19:36:59.903Z,28.68
2022-07-29T19:40:02.491Z,28.73
2022-07-29T19:43:51.442Z,28.59
2022-07-29T19:46:29.104Z,28.58
2022-07-29T19:49:32.643Z,28.54
2022-07-29T19:52:36.385Z,28.44
2022-07-29T19:55:38.740Z,28.45
2022-07-29T19:58:41.257Z,28.30
2022-07-29T20:01:43.753Z,28.22
2022-07-29T20:04:46.176Z,28.14
2022-07-29T20:07:48.362Z,28.17
2022-07-29T20:10:50.743Z,28.05
2022-07-29T20:13:52.861Z,28.04
2022-07-29T20:16:55.390Z,27.98
2022-07-29T20:19:59.918Z,27.97
2022-07-29T20:23:02.894Z,27.88
2022-07-29T20:26:09.239Z,27.86
2022-07-29T20:29:12.045Z,27.80
2022-07-29T20:32:14.185Z,27.82
2022-07-29T20:35:16.634Z,27.69
2022-07-29T20:38:21.880Z,27.70
2022-07-29T20:41:24.259Z,27.61
2022-07-29T20:44:26.382Z,27.56
2022-07-29T20:47:28.744Z,27.46
2022-07-29T20:50:30.992Z,27.34
2022-07-29T20:53:33.870Z,27.25
2022-07-29T20:56:36.035Z,27.10
2022-07-29T20:59:41.639Z,26.98
2022-07-29T21:02:47.716Z,26.93
2022-07-29T21:05:50.258Z,26.82
2022-07-29T21:08:52.484Z,26.76
2022-07-29T21:11:55.131Z,26.75
2022-07-29T21:14:57.818Z,26.60
2022-07-29T21:18:02.047Z,26.52
2022-07-29T21:21:05.163Z,26.48
2022-07-29T21:24:08.122Z,26.50
2022-07-29T21:27:32.483Z,26.45
2022-07-29T21:30:34.954Z,26.32
2022-07-29T21:33:37.266Z,26.24
2022-07-29T21:36:48.566Z,26.19
2022-07-29T21:39:51.252Z,26.11
2022-07-29T21:42:53.624Z,25.99
2022-07-29T21:45:57.457Z,26.00
2022-07-29T21:48:59.915Z,25.88
2022-07-29T21:52:02.129Z,25.74
2022-07-29T21:55:04.838Z,25.69
2022-07-29T21:58:07.243Z,25.59
2022-07-29T22:01:09.973Z,25.62
2022-07-29T22:04:12.370Z,25.48
2022-07-29T22:07:14.577Z,25.42
2022-07-29T22:10:17.290Z,25.31
2022-07-29T22:13:19.418Z,25.24
2022-07-29T22:16:21.813Z,25.12
2022-07-29T22:19:24.017Z,25.04
2022-07-29T22:22:30.170Z,25.02
2022-07-29T22:25:32.381Z,24.96
2022-07-29T22:28:34.745Z,24.95
2022-07-29T22:31:36.861Z,24.89
2022-07-29T22:34:39.331Z,24.83
2022-07-29T22:37:41.462Z,24.79
2022-07-29T22:40:43.886Z,24.83
2022-07-29T22:43:46.079Z,24.79
2022-07-29T22:46:48.455Z,24.72
2022-07-29T22:49:50.586Z,24.68
2022-07-29T22:52:52.987Z,24.58
2022-07-29T22:55:55.127Z,24.57
2022-07-29T22:58:57.540Z,24.42
2022-07-29T23:01:59.785Z,24.39
2022-07-29T23:05:02.173Z,24.42
2022-07-29T23:08:04.695Z,24.49
2022-07-29T23:11:07.683Z,24.48
2022-07-29T23:14:09.839Z,24.40
2022-07-29T23:17:12.242Z,24.31
2022-07-29T23:20:15.007Z,24.30
2022-07-29T23:23:17.512Z,24.16
2022-07-29T23:26:19.648Z,24.10
2022-07-29T23:29:22.021Z,24.18
2022-07-29T23:32:24.193Z,24.14
2022-07-29T23:35:27.052Z,24.26
2022-07-29T23:38:29.183Z,24.04
2022-07-29T23:41:31.748Z,24.00
2022-07-29T23:44:33.905Z,24.04
2022-07-29T23:47:36.336Z,23.96
2022-07-29T23:50:38.457Z,24.03
2022-07-29T23:53:53.405Z,24.09
2022-07-29T23:56:57.789Z,24.10
